Flight Track Log - Related Links

Times and Time Zones

All times are in EDT time to prevent confusion due to time zone crossing. See the RPA4900 flight status page for this flight to view local times or setup timezone preferences in your user account.

Time Position Orientation Groundspeed Altitude Reporting Facility
EDT Latitude Longitude Course Direction KTS MPH feet Rate Location/Type
Wed 10:38:03 PM 40.6500 -74.1833 217° Southwest 191 220 2,000  Level New TRACON
Wed 10:38:57 PM 40.6167 -74.2333 229° Southwest 238 274 3,700 2,200 Climbing New TRACON
Wed 10:40:00 PM 40.5310 -74.6268 245° Southwest  Level FlightAware
Wed 10:40:03 PM 40.6167 -74.3333 270° West 247 284 6,400  Level New TRACON
Wed 10:41:00 PM 40.4909 -74.7442 246° West  Level FlightAware
Wed 10:41:03 PM 40.6333 -74.4167 285° West 235 270 8,900  Level New TRACON
Wed 10:42:00 PM 40.4516 -74.8620 246° West  Level FlightAware
Wed 10:43:00 PM 40.4108 -74.9726 217° Southwest  Level FlightAware
Wed 10:43:08 PM 40.6517 -74.5950 278° West 265 305 12,400  Level New Center
Wed 10:44:09 PM 40.6194 -74.6889 246° West 265 305 13,900 814 Climbing New Center
Wed 10:45:06 PM 40.5672 -74.7597 226° Southwest 276 318 14,000 51 Climbing New Center
Wed 10:46:07 PM 40.5014 -74.8569 228° Southwest 314 361 14,000  Level New Center
Wed 10:47:08 PM 40.4397 -74.9486 229° Southwest 338 389 14,000  Level New Center
Wed 10:48:06 PM 40.3783 -75.0347 227° Southwest 338 389 14,000  Level New Center
Wed 10:49:06 PM 40.3089 -75.1122 220° Southwest 332 382 14,000  Level New Center
Wed 10:50:08 PM 40.2381 -75.1650 210° Southwest 332 382 14,000  Level New Center
Wed 10:51:08 PM 40.1700 -75.2528 225° Southwest 339 390 14,000  Level New Center
Wed 10:52:07 PM 40.1144 -75.3444 232° Southwest 331 381 14,000  Level New Center
Wed 10:53:07 PM 40.0522 -75.4461 231° Southwest 337 388 14,000  Level New Center
Wed 10:54:07 PM 40.0008 -75.5292 231° Southwest 337 388 14,000  Level New Center
Wed 10:55:08 PM 39.9403 -75.6336 233° Southwest 337 388 14,000  Level New Center
Wed 10:56:06 PM 39.8908 -75.7194 233° Southwest 337 388 14,000 -610 Level New Center
Wed 10:57:06 PM 39.8361 -75.8292 237° Southwest 332 382 12,800 -1,131 Descending New Center
Wed 10:58:08 PM 39.7861 -75.9256 236° Southwest 332 382 11,700 -651 Descending New Center
Wed 10:59:52 PM 39.7000 -76.1000 237° Southwest 310 357 11,000 -247 Descending Potomac TRACON
Wed 11:00:58 PM 39.6500 -76.1833 232° Southwest 304 350 11,000 -476 Level Potomac TRACON
Wed 11:01:58 PM 39.6000 -76.2833 237° Southwest 286 329 10,000 -1,200 Descending Potomac TRACON
Wed 11:02:58 PM 39.5667 -76.3667 243° Southwest 269 310 8,600 -1,550 Descending Potomac TRACON
Wed 11:03:58 PM 39.5333 -76.4500 243° Southwest 263 303 6,900 -1,526 Descending Potomac TRACON
Wed 11:04:52 PM 39.5000 -76.5167 237° Southwest 246 283 5,700 -1,300 Descending Potomac TRACON
Wed 11:05:58 PM 39.4667 -76.6000 243° Southwest 243 280 4,300 -810 Descending Potomac TRACON
Wed 11:06:58 PM 39.4333 -76.6833 243° Southwest 229 264 4,000 -350 Descending Potomac TRACON
Wed 11:07:58 PM 39.3833 -76.7333 218° Southwest 203 234 3,600 -632 Descending Potomac TRACON
Wed 11:08:52 PM 39.3500 -76.7667 218° Southwest 217 250 2,800 -611 Descending Potomac TRACON
Wed 11:09:46 PM 39.3000 -76.7500 166° South 184 212 2,500 -550 Descending Potomac TRACON
Wed 11:10:52 PM 39.2500 -76.7333 166° South 160 184 1,700 -684 Descending Potomac TRACON
Wed 11:11:40 PM 39.2167 -76.7167 159° South 135 155 1,200 -632 Descending Potomac TRACON
Wed 11:12:46 PM 39.2000 -76.6833 123° Southeast 120 138 500 -636 Descending Potomac TRACON

Login

Don't have an account? Register now (free) for customized features, flight alerts, and more!